createdAt,value
2022-11-29T00:00:35.354Z,1.4
2022-11-29T00:01:35.348Z,1.4
2022-11-29T00:02:35.525Z,1.4
2022-11-29T00:03:37.228Z,1.4
2022-11-29T00:04:39.398Z,1.4
2022-11-29T00:05:41.237Z,1.4
2022-11-29T00:06:43.233Z,1.4
2022-11-29T00:07:45.299Z,1.4
2022-11-29T00:08:47.240Z,1.4
2022-11-29T00:09:49.287Z,1.4
2022-11-29T00:10:51.241Z,1.4
2022-11-29T00:11:53.245Z,1.4
2022-11-29T00:12:55.255Z,1.4
2022-11-29T00:13:59.248Z,1.4
2022-11-29T00:15:01.289Z,1.4
2022-11-29T00:16:04.250Z,1.4
2022-11-29T00:17:06.256Z,1.3
2022-11-29T00:18:08.258Z,1.3
2022-11-29T00:19:10.266Z,1.4
2022-11-29T00:20:12.461Z,1.4
2022-11-29T00:21:14.243Z,1.4
2022-11-29T00:22:16.254Z,1.4
2022-11-29T00:23:18.245Z,1.4
2022-11-29T00:24:21.252Z,1.3
2022-11-29T00:25:23.282Z,1.4
2022-11-29T00:26:25.248Z,1.4
2022-11-29T00:27:27.250Z,1.3
2022-11-29T00:28:29.256Z,1.3
2022-11-29T00:29:31.331Z,1.3
2022-11-29T00:30:33.345Z,1.3
2022-11-29T00:31:35.261Z,1.3
2022-11-29T00:32:37.258Z,1.3
2022-11-29T00:33:39.287Z,1.3
2022-11-29T00:34:41.462Z,1.3
2022-11-29T00:35:44.255Z,1.3
2022-11-29T00:36:46.288Z,1.3
2022-11-29T00:37:48.245Z,1.3
2022-11-29T00:38:50.271Z,1.3
2022-11-29T00:39:52.260Z,1.3
2022-11-29T00:40:55.306Z,1.3
2022-11-29T00:41:59.265Z,1.3
2022-11-29T00:43:01.256Z,1.4
2022-11-29T00:44:03.262Z,1.4
2022-11-29T00:45:05.265Z,1.4
2022-11-29T00:46:07.336Z,1.4
2022-11-29T00:47:09.266Z,1.4
2022-11-29T00:48:11.269Z,1.4
2022-11-29T00:49:13.261Z,1.3
2022-11-29T00:50:15.264Z,1.3
2022-11-29T00:51:17.299Z,1.3
2022-11-29T00:52:19.305Z,1.4
2022-11-29T00:53:21.262Z,1.3
2022-11-29T00:54:23.264Z,1.3
2022-11-29T00:55:25.272Z,1.3
2022-11-29T00:56:27.261Z,1.3
2022-11-29T00:57:29.313Z,1.3
2022-11-29T00:58:31.269Z,1.3
2022-11-29T00:59:33.282Z,1.3
2022-11-29T01:00:35.282Z,1.3
2022-11-29T01:01:37.367Z,1.3
2022-11-29T01:02:39.355Z,1.3
2022-11-29T01:03:41.277Z,1.3
2022-11-29T01:04:43.663Z,1.3
2022-11-29T01:05:45.275Z,1.3
2022-11-29T01:06:47.312Z,1.3
2022-11-29T01:07:49.407Z,1.3
2022-11-29T01:08:51.276Z,1.3
2022-11-29T01:09:53.275Z,1.3
2022-11-29T01:10:55.311Z,1.3
2022-11-29T01:11:58.280Z,1.3
2022-11-29T01:13:00.289Z,1.3
2022-11-29T01:14:02.286Z,1.3
2022-11-29T01:15:04.290Z,1.3
2022-11-29T01:16:06.286Z,1.3
2022-11-29T01:17:08.338Z,1.3
2022-11-29T01:18:10.295Z,1.3
2022-11-29T01:19:12.282Z,1.3
2022-11-29T01:20:14.287Z,1.3
2022-11-29T01:21:16.292Z,1.3
2022-11-29T01:22:18.320Z,1.3
2022-11-29T01:23:20.299Z,1.3
2022-11-29T01:24:22.290Z,1.3
2022-11-29T01:25:24.292Z,1.3
2022-11-29T01:26:26.295Z,1.3
2022-11-29T01:27:28.292Z,1.3
2022-11-29T01:28:30.328Z,1.3
2022-11-29T01:29:32.289Z,1.4
2022-11-29T01:30:34.395Z,1.4
2022-11-29T01:31:36.295Z,1.4
2022-11-29T01:32:38.294Z,1.4
2022-11-29T01:33:40.337Z,1.4
2022-11-29T01:34:42.825Z,1.4
2022-11-29T01:35:44.296Z,1.4
2022-11-29T01:36:46.301Z,1.4
2022-11-29T01:37:48.329Z,1.4
2022-11-29T01:38:50.335Z,1.4
2022-11-29T01:39:52.291Z,1.4
2022-11-29T01:40:55.312Z,1.4
2022-11-29T01:41:59.302Z,1.4
2022-11-29T01:43:01.316Z,1.4
2022-11-29T01:44:03.322Z,1.4
2022-11-29T01:45:05.325Z,1.4
2022-11-29T01:46:07.321Z,1.4
2022-11-29T01:47:09.339Z,1.4
2022-11-29T01:48:11.317Z,1.4
2022-11-29T01:49:13.308Z,1.4
2022-11-29T01:50:15.308Z,1.4
2022-11-29T01:51:17.322Z,1.4
2022-11-29T01:52:19.308Z,1.4
2022-11-29T01:53:21.308Z,1.4
2022-11-29T01:54:23.310Z,1.4
2022-11-29T01:55:25.339Z,1.4
2022-11-29T01:56:27.307Z,1.4
2022-11-29T01:57:29.317Z,1.4
2022-11-29T01:58:31.315Z,1.4
2022-11-29T01:59:33.303Z,1.4
2022-11-29T02:00:35.339Z,1.4
2022-11-29T02:01:37.388Z,1.4
2022-11-29T02:02:39.453Z,1.5
2022-11-29T02:04:43.815Z,1.5
2022-11-29T02:05:45.315Z,1.4
2022-11-29T02:06:47.314Z,1.5
2022-11-29T02:07:49.384Z,1.5
2022-11-29T02:08:51.312Z,1.5
2022-11-29T02:09:53.317Z,1.5
2022-11-29T02:10:55.332Z,1.5
2022-11-29T02:11:59.329Z,1.5
2022-11-29T02:13:01.319Z,1.5
2022-11-29T02:14:03.320Z,1.5
2022-11-29T02:15:05.353Z,1.5
2022-11-29T02:16:07.376Z,1.5
2022-11-29T02:17:09.324Z,1.5
2022-11-29T02:18:11.324Z,1.5
2022-11-29T02:19:13.332Z,1.5
2022-11-29T02:20:15.328Z,1.5
2022-11-29T02:21:17.324Z,1.5
2022-11-29T02:22:19.327Z,1.5
2022-11-29T02:23:22.341Z,1.5
2022-11-29T02:24:24.334Z,1.5
2022-11-29T02:25:26.329Z,1.5
2022-11-29T02:26:28.411Z,1.5
2022-11-29T02:27:30.328Z,1.5
2022-11-29T02:28:32.338Z,1.5
2022-11-29T02:29:34.345Z,1.5
2022-11-29T02:30:36.425Z,1.5
2022-11-29T02:31:38.342Z,1.5
2022-11-29T02:32:40.329Z,1.5
2022-11-29T02:33:42.336Z,1.5
2022-11-29T02:34:44.693Z,1.5
2022-11-29T02:35:46.344Z,1.5
2022-11-29T02:36:48.398Z,1.5
2022-11-29T02:37:50.333Z,1.5
2022-11-29T02:38:52.344Z,1.5
2022-11-29T02:39:55.351Z,1.5
2022-11-29T02:40:58.340Z,1.5
2022-11-29T02:42:00.345Z,1.5
2022-11-29T02:43:02.344Z,1.5
2022-11-29T02:44:04.342Z,1.5
2022-11-29T02:45:06.339Z,1.5
2022-11-29T02:46:08.384Z,1.5
2022-11-29T02:47:10.372Z,1.5
2022-11-29T02:48:12.351Z,1.5
2022-11-29T02:49:14.348Z,1.5
2022-11-29T02:50:16.350Z,1.5
2022-11-29T02:51:18.361Z,1.6
2022-11-29T02:52:20.389Z,1.6
2022-11-29T02:53:22.344Z,1.6
2022-11-29T02:54:24.363Z,1.6
2022-11-29T02:55:26.353Z,1.7
2022-11-29T02:56:28.344Z,1.7
2022-11-29T02:57:30.371Z,1.7
2022-11-29T02:58:32.354Z,1.7
2022-11-29T02:59:34.359Z,1.7
2022-11-29T03:00:36.356Z,1.7
2022-11-29T03:01:38.385Z,1.7
2022-11-29T03:02:40.655Z,1.8
2022-11-29T03:04:44.598Z,1.7
2022-11-29T03:05:46.358Z,1.8
2022-11-29T03:07:35.548Z,1.8
2022-11-29T03:08:35.662Z,1.8
2022-11-29T03:09:35.506Z,1.8
2022-11-29T03:10:35.475Z,1.8
2022-11-29T03:11:35.478Z,1.8
2022-11-29T03:12:35.466Z,1.8
2022-11-29T03:13:35.517Z,1.8
2022-11-29T03:14:35.480Z,1.8
2022-11-29T03:15:35.533Z,1.8
2022-11-29T03:16:41.286Z,1.8
2022-11-29T03:17:35.485Z,1.7
2022-11-29T03:18:35.502Z,1.7
2022-11-29T03:19:35.503Z,1.7
2022-11-29T03:20:35.478Z,1.7
2022-11-29T03:21:35.486Z,1.7
2022-11-29T03:22:35.478Z,1.7
2022-11-29T03:23:35.686Z,1.7
2022-11-29T03:24:35.510Z,1.6
2022-11-29T03:25:35.481Z,1.7
2022-11-29T03:26:35.490Z,1.6
2022-11-29T03:27:35.889Z,1.6
2022-11-29T03:28:36.035Z,1.6
2022-11-29T03:29:37.078Z,1.6
2022-11-29T03:30:38.453Z,1.6
2022-11-29T03:31:41.397Z,1.6
2022-11-29T03:32:43.431Z,1.6
2022-11-29T03:33:45.366Z,1.6
2022-11-29T03:34:51.738Z,1.5
2022-11-29T03:35:50.381Z,1.5
2022-11-29T03:36:52.372Z,1.5
2022-11-29T03:37:56.412Z,1.5
2022-11-29T03:38:58.420Z,1.6
2022-11-29T03:40:00.424Z,1.6
2022-11-29T03:41:02.376Z,1.6
2022-11-29T03:42:04.387Z,1.6
2022-11-29T03:43:06.411Z,1.6
2022-11-29T03:44:08.376Z,1.6
2022-11-29T03:45:10.377Z,1.7
2022-11-29T03:46:12.487Z,1.7
2022-11-29T03:47:14.419Z,1.7
2022-11-29T03:48:16.422Z,1.7
2022-11-29T03:49:18.378Z,1.7
2022-11-29T03:50:20.383Z,1.7
2022-11-29T03:51:22.387Z,1.8
2022-11-29T03:52:25.380Z,1.7
2022-11-29T03:53:27.395Z,1.7
2022-11-29T03:54:29.384Z,1.7
2022-11-29T03:55:31.404Z,1.7
2022-11-29T03:56:33.394Z,1.7
2022-11-29T03:57:35.601Z,1.7
2022-11-29T03:58:37.401Z,1.7
2022-11-29T03:59:39.386Z,1.7
2022-11-29T04:00:41.416Z,1.7
2022-11-29T04:01:43.463Z,1.7
2022-11-29T04:02:45.450Z,1.7
2022-11-29T04:03:48.392Z,1.7
2022-11-29T04:04:50.390Z,1.7
2022-11-29T04:05:52.398Z,1.7
2022-11-29T04:06:55.467Z,1.7
2022-11-29T04:07:58.466Z,1.7
2022-11-29T04:09:00.389Z,1.7
2022-11-29T04:10:02.390Z,1.7
2022-11-29T04:11:04.400Z,1.7
2022-11-29T04:12:06.418Z,1.7
2022-11-29T04:13:08.393Z,1.7
2022-11-29T04:14:10.393Z,1.7
2022-11-29T04:15:15.463Z,1.7
2022-11-29T04:16:14.491Z,1.7
2022-11-29T04:17:35.552Z,1.7
2022-11-29T04:18:35.527Z,1.7
2022-11-29T04:19:35.522Z,1.7
2022-11-29T04:20:39.715Z,1.7
2022-11-29T04:21:35.522Z,1.7
2022-11-29T04:22:35.535Z,1.7
2022-11-29T04:23:35.510Z,1.7
2022-11-29T04:24:35.519Z,1.6
2022-11-29T04:25:35.708Z,1.6
2022-11-29T04:26:35.563Z,1.7
2022-11-29T04:27:36.439Z,1.6
2022-11-29T04:28:38.423Z,1.6
2022-11-29T04:29:40.407Z,1.7
2022-11-29T04:30:42.414Z,1.7
2022-11-29T04:31:44.411Z,1.7
2022-11-29T04:32:46.447Z,1.7
2022-11-29T04:33:48.420Z,1.7
2022-11-29T04:34:50.415Z,1.7
2022-11-29T04:35:52.415Z,1.7
2022-11-29T04:36:55.431Z,1.7
2022-11-29T04:37:58.436Z,1.7
2022-11-29T04:39:00.448Z,1.6
2022-11-29T04:40:02.427Z,1.6
2022-11-29T04:41:04.423Z,1.6
2022-11-29T04:42:06.429Z,1.6
2022-11-29T04:43:08.443Z,1.6
2022-11-29T04:44:10.432Z,1.7
2022-11-29T04:45:12.442Z,1.7
2022-11-29T04:46:14.514Z,1.7
2022-11-29T04:47:16.453Z,1.7
2022-11-29T04:48:18.417Z,1.7
2022-11-29T04:49:20.424Z,1.7
2022-11-29T04:50:22.448Z,1.7
2022-11-29T04:51:24.431Z,1.7
2022-11-29T04:52:26.472Z,1.7
2022-11-29T04:53:28.427Z,1.7
2022-11-29T04:54:30.430Z,1.7
2022-11-29T04:55:33.439Z,1.7
2022-11-29T04:56:35.450Z,1.7
2022-11-29T04:57:37.435Z,1.7
2022-11-29T04:58:39.425Z,1.7
2022-11-29T04:59:41.433Z,1.7
2022-11-29T05:00:43.431Z,1.7
2022-11-29T05:01:46.525Z,1.7
2022-11-29T05:02:48.507Z,1.7
2022-11-29T05:03:56.692Z,1.7
2022-11-29T05:04:52.439Z,1.7
2022-11-29T05:05:55.446Z,1.7
2022-11-29T05:06:58.574Z,1.6
2022-11-29T05:08:00.458Z,1.6
2022-11-29T05:09:02.440Z,1.6
2022-11-29T05:10:04.447Z,1.7
2022-11-29T05:11:06.436Z,1.7
2022-11-29T05:12:09.456Z,1.7
2022-11-29T05:13:11.444Z,1.7
2022-11-29T05:14:13.438Z,1.6
2022-11-29T05:15:15.434Z,1.7
2022-11-29T05:16:17.490Z,1.6
2022-11-29T05:17:19.455Z,1.7
2022-11-29T05:18:21.439Z,1.6
2022-11-29T05:19:23.439Z,1.6
2022-11-29T05:20:25.448Z,1.6
2022-11-29T05:21:27.442Z,1.6
2022-11-29T05:22:29.456Z,1.6
2022-11-29T05:23:31.448Z,1.6
2022-11-29T05:24:33.450Z,1.6
2022-11-29T05:25:35.454Z,1.6
2022-11-29T05:26:37.449Z,1.6
2022-11-29T05:27:39.515Z,1.6
2022-11-29T05:28:41.450Z,1.6
2022-11-29T05:29:43.451Z,1.6
2022-11-29T05:30:45.454Z,1.6
2022-11-29T05:31:47.442Z,1.6
2022-11-29T05:32:49.463Z,1.6
2022-11-29T05:33:51.449Z,1.6
2022-11-29T05:34:53.457Z,1.6
2022-11-29T05:35:55.481Z,1.6
2022-11-29T05:36:59.459Z,1.6
2022-11-29T05:38:01.480Z,1.6
2022-11-29T05:39:03.453Z,1.6
2022-11-29T05:40:05.466Z,1.6
2022-11-29T05:41:07.454Z,1.6
2022-11-29T05:42:09.460Z,1.6
2022-11-29T05:43:11.486Z,1.6
2022-11-29T05:44:13.465Z,1.6
2022-11-29T05:45:15.459Z,1.6
2022-11-29T05:46:17.554Z,1.6
2022-11-29T05:47:19.482Z,1.6
2022-11-29T05:48:21.470Z,1.6
2022-11-29T05:49:23.476Z,1.6
2022-11-29T05:50:25.474Z,1.6
2022-11-29T05:51:35.584Z,1.6
2022-11-29T05:52:35.577Z,1.6
2022-11-29T05:53:35.583Z,1.6
2022-11-29T05:54:35.579Z,1.7
2022-11-29T05:55:35.682Z,1.6
2022-11-29T05:56:37.465Z,1.6
2022-11-29T05:57:39.470Z,1.6
2022-11-29T05:58:41.498Z,1.6
2022-11-29T05:59:43.472Z,1.6
2022-11-29T06:00:46.511Z,1.6
2022-11-29T06:01:48.595Z,1.6
2022-11-29T06:02:50.499Z,1.6
2022-11-29T06:03:52.510Z,1.6
2022-11-29T06:04:55.496Z,1.6
2022-11-29T06:05:58.478Z,1.6
2022-11-29T06:07:00.478Z,1.6
2022-11-29T06:08:02.470Z,1.6
2022-11-29T06:09:04.669Z,1.6
2022-11-29T06:10:06.479Z,1.7
2022-11-29T06:11:08.478Z,1.7
2022-11-29T06:12:11.472Z,1.7
2022-11-29T06:13:13.475Z,1.7
2022-11-29T06:14:15.523Z,1.7
2022-11-29T06:15:17.485Z,1.7
2022-11-29T06:16:19.491Z,1.7
2022-11-29T06:17:21.474Z,1.7
2022-11-29T06:18:23.487Z,1.7
2022-11-29T06:19:25.672Z,1.7
2022-11-29T06:20:35.607Z,1.7
2022-11-29T06:21:35.596Z,1.7
2022-11-29T06:22:35.605Z,1.7
2022-11-29T06:23:35.610Z,1.7
2022-11-29T06:24:35.726Z,1.7
2022-11-29T06:25:51.148Z,1.7
2022-11-29T06:26:39.490Z,1.7
2022-11-29T06:27:41.486Z,1.7
2022-11-29T06:28:43.487Z,1.7
2022-11-29T06:30:35.626Z,1.7
2022-11-29T06:31:35.686Z,1.7
2022-11-29T06:32:35.611Z,1.7
2022-11-29T06:33:35.601Z,1.7
2022-11-29T06:34:35.603Z,1.7
2022-11-29T06:35:35.612Z,1.7
2022-11-29T06:36:35.618Z,1.7
2022-11-29T06:37:35.616Z,1.7
2022-11-29T06:38:35.606Z,1.7
2022-11-29T06:39:35.626Z,1.7
2022-11-29T06:41:11.495Z,1.7
2022-11-29T06:42:13.515Z,1.7
2022-11-29T06:43:15.497Z,1.7
2022-11-29T06:44:17.511Z,1.7
2022-11-29T06:45:20.492Z,1.7
2022-11-29T06:46:22.558Z,1.7
2022-11-29T06:47:24.519Z,1.6
2022-11-29T06:48:26.517Z,1.7
2022-11-29T06:49:28.511Z,1.7
2022-11-29T06:50:30.515Z,1.7
2022-11-29T06:51:32.508Z,1.7
2022-11-29T06:52:34.546Z,1.7
2022-11-29T06:53:36.511Z,1.7
2022-11-29T06:54:39.514Z,1.7
2022-11-29T06:55:41.514Z,1.7
2022-11-29T06:56:43.520Z,1.7
2022-11-29T06:57:46.517Z,1.7
2022-11-29T06:58:48.504Z,1.8
2022-11-29T06:59:50.568Z,1.8
2022-11-29T07:00:52.527Z,1.8
2022-11-29T07:01:55.592Z,1.8
2022-11-29T07:02:58.537Z,1.7
2022-11-29T07:04:00.513Z,1.7
2022-11-29T07:05:02.516Z,1.7
2022-11-29T07:06:04.512Z,1.7
2022-11-29T07:07:06.519Z,1.7
2022-11-29T07:08:08.561Z,1.7
2022-11-29T07:09:10.514Z,1.7
2022-11-29T07:10:14.968Z,1.7
2022-11-29T07:11:14.512Z,1.7
2022-11-29T07:12:16.517Z,1.7
2022-11-29T07:13:18.533Z,1.7
2022-11-29T07:14:20.521Z,1.7
2022-11-29T07:15:32.346Z,1.8
2022-11-29T07:16:36.496Z,1.8
2022-11-29T07:18:35.666Z,1.8
2022-11-29T07:28:20.896Z,1.9
2022-11-29T07:28:39.582Z,1.9
2022-11-29T07:29:46.965Z,2
2022-11-29T07:30:47.633Z,2
2022-11-29T07:31:49.669Z,2
2022-11-29T07:32:54.734Z,2
2022-11-29T07:33:53.639Z,2
2022-11-29T07:34:55.586Z,2
2022-11-29T07:35:57.592Z,1.9
2022-11-29T07:37:00.591Z,2
2022-11-29T07:38:02.592Z,1.9
2022-11-29T07:39:04.675Z,1.9
2022-11-29T07:40:06.594Z,1.9
2022-11-29T07:41:08.604Z,1.9
2022-11-29T07:42:10.606Z,1.9
2022-11-29T07:43:34.212Z,1.9
2022-11-29T07:44:41.645Z,1.9
2022-11-29T07:45:34.213Z,1.9
2022-11-29T07:46:34.268Z,1.9
2022-11-29T07:47:35.736Z,1.9
2022-11-29T07:48:34.224Z,1.9
2022-11-29T07:49:34.220Z,1.9
2022-11-29T07:50:34.250Z,1.9
2022-11-29T07:51:34.213Z,1.9
2022-11-29T07:52:34.213Z,1.9
2022-11-29T07:53:35.555Z,2
2022-11-29T07:54:37.556Z,1.9
2022-11-29T07:55:49.794Z,2
2022-11-29T07:56:41.575Z,2
2022-11-29T07:57:45.581Z,1.9
2022-11-29T07:58:47.645Z,1.9
2022-11-29T07:59:49.558Z,2
2022-11-29T08:00:51.802Z,2
2022-11-29T08:01:53.625Z,2
2022-11-29T08:02:55.558Z,2
2022-11-29T08:03:57.558Z,2
2022-11-29T08:04:59.561Z,2
2022-11-29T08:06:01.608Z,2
2022-11-29T08:07:03.571Z,2
2022-11-29T08:08:05.571Z,2
2022-11-29T08:09:07.574Z,2
2022-11-29T08:10:09.563Z,2
2022-11-29T08:11:11.836Z,2.1
2022-11-29T08:12:13.573Z,2.1
2022-11-29T08:13:15.567Z,2.1
2022-11-29T08:14:17.579Z,2.1
2022-11-29T08:15:19.567Z,2.1
2022-11-29T08:16:21.655Z,2.1
2022-11-29T08:17:23.605Z,2.1
2022-11-29T08:18:25.571Z,2.1
2022-11-29T08:19:28.872Z,2.1
2022-11-29T08:20:35.243Z,2.1
2022-11-29T08:22:33.863Z,2.2
2022-11-29T08:23:39.401Z,2.2
2022-11-29T08:24:38.863Z,2.2
2022-11-29T08:25:42.896Z,2.2
2022-11-29T08:28:51.144Z,2.2
2022-11-29T08:29:52.411Z,2.2
2022-11-29T08:30:54.439Z,2.2
2022-11-29T08:31:56.632Z,2.2
2022-11-29T08:32:58.414Z,2.2
2022-11-29T08:34:00.414Z,2.2
2022-11-29T08:35:02.394Z,2.2
2022-11-29T08:36:04.416Z,2.2
2022-11-29T08:37:06.431Z,2.2
2022-11-29T08:38:08.420Z,2.3
2022-11-29T08:39:10.420Z,2.2
2022-11-29T08:40:12.416Z,2.2
2022-11-29T08:41:14.419Z,2.3
2022-11-29T08:42:16.429Z,2.2
2022-11-29T08:43:18.418Z,2.3
2022-11-29T08:44:21.667Z,2.3
2022-11-29T08:45:22.521Z,2.4
2022-11-29T08:46:24.487Z,2.4
2022-11-29T08:47:26.438Z,2.4
2022-11-29T08:48:29.418Z,2.4
2022-11-29T08:49:31.415Z,2.4
2022-11-29T08:50:33.432Z,2.4
2022-11-29T08:51:35.415Z,2.4
2022-11-29T08:52:37.431Z,2.3
2022-11-29T08:53:39.431Z,2.4
2022-11-29T08:54:43.856Z,2.4
2022-11-29T08:55:49.746Z,2.4
2022-11-29T08:57:37.501Z,2.4
2022-11-29T08:57:49.431Z,2.4
2022-11-29T08:58:52.572Z,2.4
2022-11-29T09:00:05.259Z,2.4
2022-11-29T09:00:56.486Z,2.5
2022-11-29T09:02:00.121Z,2.5
2022-11-29T09:03:00.619Z,2.5
2022-11-29T09:04:02.479Z,2.5
2022-11-29T09:05:06.600Z,2.5
2022-11-29T09:06:11.759Z,2.5
2022-11-29T09:08:10.912Z,2.5
2022-11-29T09:09:12.887Z,2.5
2022-11-29T09:10:14.883Z,2.6
2022-11-29T09:11:16.881Z,2.6
2022-11-29T09:12:18.879Z,2.6
2022-11-29T09:13:20.919Z,2.6
2022-11-29T09:14:22.904Z,2.6
2022-11-29T09:15:24.883Z,2.6
2022-11-29T09:16:26.935Z,2.6
2022-11-29T09:17:28.919Z,2.6
2022-11-29T09:18:30.898Z,2.6
2022-11-29T09:19:32.925Z,2.6
2022-11-29T09:20:35.879Z,2.6
2022-11-29T09:21:37.884Z,2.7
2022-11-29T09:22:39.889Z,2.7
2022-11-29T09:23:41.924Z,2.7
2022-11-29T09:24:45.091Z,2.7
2022-11-29T09:25:46.889Z,2.7
2022-11-29T09:26:48.928Z,2.7
2022-11-29T09:27:50.891Z,2.7
2022-11-29T09:28:52.896Z,2.7
2022-11-29T09:29:54.896Z,2.7
2022-11-29T09:30:56.893Z,2.7
2022-11-29T09:31:58.983Z,2.7
2022-11-29T09:33:00.895Z,2.8
2022-11-29T09:34:02.898Z,2.8
2022-11-29T09:38:08.994Z,2.9
2022-11-29T09:38:09.468Z,2.9
2022-11-29T09:38:34.288Z,2.9
2022-11-29T09:39:35.714Z,3
2022-11-29T09:40:34.291Z,3
2022-11-29T09:41:34.291Z,2.9
2022-11-29T09:42:34.293Z,2.9
2022-11-29T09:43:34.307Z,2.9
2022-11-29T09:44:34.291Z,2.9
2022-11-29T09:45:34.359Z,3
2022-11-29T09:46:34.295Z,2.9
2022-11-29T09:47:34.638Z,2.9
2022-11-29T09:48:38.899Z,2.9
2022-11-29T09:53:12.522Z,3
2022-11-29T09:54:13.409Z,3
2022-11-29T09:55:15.427Z,3
2022-11-29T09:56:17.410Z,2.9
2022-11-29T09:57:21.472Z,3
2022-11-29T09:58:22.404Z,2.9
2022-11-29T09:59:24.655Z,2.9
2022-11-29T10:01:47.939Z,3
2022-11-29T10:02:49.784Z,3
2022-11-29T10:03:51.768Z,3
2022-11-29T10:04:53.783Z,3
2022-11-29T10:05:56.771Z,3
2022-11-29T10:06:58.773Z,3
2022-11-29T10:08:00.823Z,3
2022-11-29T10:09:03.772Z,3
2022-11-29T10:10:05.796Z,3
2022-11-29T10:11:08.831Z,3
2022-11-29T10:12:11.863Z,3
2022-11-29T10:13:13.772Z,3
2022-11-29T10:14:15.767Z,2.9
2022-11-29T10:15:17.777Z,3
2022-11-29T10:16:20.884Z,3
2022-11-29T10:17:23.581Z,3
2022-11-29T10:18:24.804Z,3
2022-11-29T10:19:26.772Z,3
2022-11-29T10:20:28.774Z,3
2022-11-29T10:21:30.766Z,3.1
2022-11-29T10:22:33.734Z,3.1
2022-11-29T10:23:34.824Z,3
2022-11-29T10:24:36.781Z,3.1
2022-11-29T10:25:38.777Z,3
2022-11-29T10:26:40.823Z,3
2022-11-29T10:27:42.779Z,3.1
2022-11-29T10:28:44.781Z,3.1
2022-11-29T10:29:46.784Z,3.1
2022-11-29T10:30:49.846Z,3.1
2022-11-29T10:31:51.820Z,3
2022-11-29T10:32:53.789Z,3
2022-11-29T10:33:56.687Z,3
2022-11-29T10:35:09.131Z,3.1
2022-11-29T10:36:01.855Z,3.1
2022-11-29T10:38:31.115Z,3
2022-11-29T10:40:24.656Z,3.1
2022-11-29T10:41:27.154Z,3.1
2022-11-29T10:43:43.488Z,3
2022-11-29T10:44:39.561Z,3
2022-11-29T10:49:01.242Z,3.1
2022-11-29T10:49:01.710Z,3.1
2022-11-29T10:49:34.342Z,3.1
2022-11-29T10:50:34.338Z,3.1
2022-11-29T10:51:34.366Z,3.1
2022-11-29T10:52:34.370Z,3.2
2022-11-29T10:53:34.340Z,3.3
2022-11-29T10:54:34.342Z,3.2
2022-11-29T10:55:34.384Z,3.2
2022-11-29T10:56:34.339Z,3.2
2022-11-29T10:57:34.375Z,3.2
2022-11-29T10:58:34.352Z,3.2
2022-11-29T10:59:34.399Z,3.2
2022-11-29T11:00:34.350Z,3.2
2022-11-29T11:02:40.450Z,3.1
2022-11-29T11:07:35.428Z,3.1
2022-11-29T11:11:36.156Z,3.2
2022-11-29T11:12:34.353Z,3.2
2022-11-29T11:13:34.348Z,3.2
2022-11-29T11:14:34.389Z,3.2
2022-11-29T11:15:34.355Z,3.1
2022-11-29T11:16:37.603Z,3.2
2022-11-29T11:17:34.361Z,3.1
2022-11-29T11:18:34.352Z,3.1
2022-11-29T11:20:28.351Z,3.1
2022-11-29T11:21:30.261Z,3.2
2022-11-29T11:22:33.387Z,3.2
2022-11-29T11:23:39.938Z,3.2
2022-11-29T11:24:38.354Z,3.2
2022-11-29T11:25:40.357Z,3.2
2022-11-29T11:26:42.366Z,3.2
2022-11-29T11:27:46.298Z,3.2
2022-11-29T11:28:47.373Z,3.2
2022-11-29T11:29:49.407Z,3.2
2022-11-29T11:30:51.404Z,3.2
2022-11-29T11:31:53.366Z,3.2
2022-11-29T11:32:55.366Z,3.2
2022-11-29T11:33:58.367Z,3.2
2022-11-29T11:36:08.715Z,3.2
2022-11-29T11:37:04.373Z,3.2
2022-11-29T11:38:07.411Z,3.3
2022-11-29T11:39:09.390Z,3.3
2022-11-29T11:40:11.457Z,3.3
2022-11-29T11:41:13.370Z,3.3
2022-11-29T11:42:15.402Z,3.3
2022-11-29T11:43:17.375Z,3.3
2022-11-29T11:44:45.695Z,3.3
2022-11-29T11:45:21.422Z,3.3
2022-11-29T11:46:23.416Z,3.3
2022-11-29T11:47:25.409Z,3.3
2022-11-29T11:48:27.390Z,3.3
2022-11-29T11:49:30.327Z,3.3
2022-11-29T11:50:31.381Z,3.2
2022-11-29T11:51:33.403Z,3.2
2022-11-29T11:52:40.220Z,3.2
2022-11-29T11:53:39.383Z,3.2
2022-11-29T11:54:41.384Z,3.2
2022-11-29T11:56:53.325Z,3.2
2022-11-29T11:58:34.423Z,3.4
2022-11-29T11:59:34.420Z,3.4
2022-11-29T12:01:02.275Z,3.4
2022-11-29T12:01:34.382Z,3.5
2022-11-29T12:02:34.474Z,3.5
2022-11-29T12:03:34.489Z,3.5
2022-11-29T12:04:34.380Z,3.5
2022-11-29T12:05:35.773Z,3.5
2022-11-29T12:06:34.415Z,3.6
2022-11-29T12:08:34.512Z,3.6
2022-11-29T12:09:34.420Z,3.6
2022-11-29T12:10:35.705Z,3.6
2022-11-29T12:11:34.397Z,3.6
2022-11-29T12:12:34.407Z,3.6
2022-11-29T12:13:34.435Z,3.6
2022-11-29T12:14:34.391Z,3.6
2022-11-29T12:15:34.499Z,3.6
2022-11-29T12:16:34.393Z,3.7
2022-11-29T12:17:34.396Z,3.7
2022-11-29T12:18:34.440Z,3.7
2022-11-29T12:19:34.391Z,3.7
2022-11-29T12:20:36.389Z,3.7
2022-11-29T12:21:38.387Z,3.7
2022-11-29T12:22:43.900Z,3.7
2022-11-29T12:23:43.427Z,3.7
2022-11-29T12:24:45.729Z,3.8
2022-11-29T12:25:47.460Z,3.8
2022-11-29T12:27:51.387Z,3.8
2022-11-29T12:29:56.439Z,3.8
2022-11-29T12:30:58.440Z,3.8
2022-11-29T12:33:03.847Z,3.8
2022-11-29T12:34:35.571Z,3.8
2022-11-29T12:35:34.425Z,3.7
2022-11-29T12:36:34.419Z,3.7
2022-11-29T12:37:34.429Z,3.8
2022-11-29T12:38:34.414Z,3.7
2022-11-29T12:39:34.428Z,3.8
2022-11-29T12:40:44.752Z,3.8
2022-11-29T12:41:34.409Z,3.8
2022-11-29T12:42:34.412Z,3.8
2022-11-29T12:43:34.420Z,3.8
2022-11-29T12:44:44.992Z,3.9
2022-11-29T12:46:34.563Z,3.9
2022-11-29T12:47:37.237Z,3.9
2022-11-29T12:48:38.588Z,3.9
2022-11-29T12:49:40.615Z,3.9
2022-11-29T12:50:42.598Z,3.9
2022-11-29T12:51:44.610Z,3.9
2022-11-29T12:52:46.617Z,3.8
2022-11-29T12:53:48.597Z,3.8
2022-11-29T12:54:50.599Z,3.8
2022-11-29T12:55:52.602Z,3.8
2022-11-29T12:56:54.636Z,3.8
2022-11-29T12:57:56.606Z,3.8
2022-11-29T12:58:58.600Z,3.8
2022-11-29T13:00:10.782Z,3.8
2022-11-29T13:01:02.603Z,3.8
2022-11-29T13:02:04.674Z,3.8
2022-11-29T13:03:06.651Z,3.9
2022-11-29T13:04:08.603Z,3.9
2022-11-29T13:05:10.599Z,3.8
2022-11-29T13:06:12.600Z,3.9
2022-11-29T13:07:14.668Z,3.9
2022-11-29T13:08:16.610Z,3.9
2022-11-29T13:09:18.608Z,4
2022-11-29T13:10:20.606Z,4
2022-11-29T13:11:22.601Z,4
2022-11-29T13:12:24.794Z,4
2022-11-29T13:13:27.651Z,4
2022-11-29T13:14:43.599Z,4
2022-11-29T13:16:33.683Z,3.9
2022-11-29T13:17:37.611Z,4
2022-11-29T13:18:39.614Z,4
2022-11-29T13:19:41.612Z,4
2022-11-29T13:20:43.620Z,4
2022-11-29T13:21:45.654Z,4
2022-11-29T13:22:49.623Z,3.9
2022-11-29T13:24:07.809Z,3.9
2022-11-29T13:24:52.613Z,3.9
2022-11-29T13:25:55.627Z,3.9
2022-11-29T13:26:57.649Z,3.9
2022-11-29T13:27:59.661Z,3.9
2022-11-29T13:29:01.634Z,3.8
2022-11-29T13:30:05.558Z,3.9
2022-11-29T13:31:06.703Z,3.9
2022-11-29T13:32:14.434Z,3.9
2022-11-29T13:33:10.672Z,3.9
2022-11-29T13:34:12.625Z,3.9
2022-11-29T13:35:14.712Z,3.9
2022-11-29T13:36:16.626Z,3.9
2022-11-29T13:37:18.619Z,3.9
2022-11-29T13:38:20.630Z,3.9
2022-11-29T13:39:22.633Z,3.9
2022-11-29T13:40:24.675Z,3.9
2022-11-29T13:41:27.627Z,3.9
2022-11-29T13:42:30.630Z,3.9
2022-11-29T13:43:33.643Z,3.8
2022-11-29T13:44:36.632Z,3.7
2022-11-29T13:45:38.663Z,3.8
2022-11-29T13:46:40.749Z,3.8
2022-11-29T13:47:42.669Z,3.8
2022-11-29T13:48:45.740Z,3.8
2022-11-29T13:49:46.635Z,3.8
2022-11-29T13:50:48.631Z,3.8
2022-11-29T13:51:50.617Z,3.7
2022-11-29T13:52:52.629Z,3.7
2022-11-29T13:53:54.639Z,3.8
2022-11-29T13:54:57.636Z,3.7
2022-11-29T13:55:59.687Z,3.8
2022-11-29T13:57:01.637Z,3.8
2022-11-29T13:58:17.390Z,3.8
2022-11-29T13:59:05.654Z,3.9
2022-11-29T14:00:26.031Z,3.9
2022-11-29T14:01:22.367Z,3.9
2022-11-29T14:02:24.077Z,3.9
2022-11-29T14:03:26.148Z,4
2022-11-29T14:04:28.135Z,3.9
2022-11-29T14:05:30.084Z,3.9
2022-11-29T14:06:32.167Z,3.8
2022-11-29T14:07:34.153Z,3.8
2022-11-29T14:09:10.321Z,3.7
2022-11-29T14:09:39.090Z,3.7
2022-11-29T14:10:41.089Z,3.7
2022-11-29T14:11:43.124Z,3.8
2022-11-29T14:12:46.278Z,3.7
2022-11-29T14:13:47.107Z,3.7
2022-11-29T14:14:49.150Z,3.7
2022-11-29T14:15:51.118Z,3.7
2022-11-29T14:16:56.633Z,3.7
2022-11-29T14:17:56.100Z,3.6
2022-11-29T14:18:58.129Z,3.6
2022-11-29T14:20:00.126Z,3.6
2022-11-29T14:21:02.091Z,3.6
2022-11-29T14:22:04.109Z,3.7
2022-11-29T14:23:06.122Z,3.7
2022-11-29T14:24:08.100Z,3.7
2022-11-29T14:25:35.007Z,3.6
2022-11-29T14:26:12.099Z,3.6
2022-11-29T14:27:14.100Z,3.6
2022-11-29T14:28:16.104Z,3.6
2022-11-29T14:29:18.828Z,3.6
2022-11-29T14:30:21.031Z,3.6
2022-11-29T14:31:22.859Z,3.5
2022-11-29T14:32:24.832Z,3.5
2022-11-29T14:33:26.832Z,3.5
2022-11-29T14:34:28.871Z,3.5
2022-11-29T14:35:30.852Z,3.4
2022-11-29T14:36:33.856Z,3.4
2022-11-29T14:37:36.838Z,3.4
2022-11-29T14:38:38.839Z,3.4
2022-11-29T14:39:40.837Z,3.4
2022-11-29T14:40:42.850Z,3.3
2022-11-29T14:41:44.832Z,3.3
2022-11-29T14:42:47.373Z,3.4
2022-11-29T14:43:48.836Z,3.4
2022-11-29T14:44:50.851Z,3.3
2022-11-29T14:45:53.867Z,3.3
2022-11-29T14:47:34.537Z,3.3
2022-11-29T14:48:34.520Z,3.3
2022-11-29T14:49:34.499Z,3.3
2022-11-29T14:50:34.502Z,3.4
2022-11-29T14:51:34.492Z,3.4
2022-11-29T14:52:34.536Z,3.4
2022-11-29T14:53:34.503Z,3.3
2022-11-29T14:54:34.502Z,3.3
2022-11-29T14:55:34.521Z,3.3
2022-11-29T14:56:36.078Z,3.3
2022-11-29T14:57:35.867Z,3.3
2022-11-29T14:58:34.505Z,3.2
2022-11-29T14:59:34.509Z,3.2
2022-11-29T15:00:34.505Z,3.2
2022-11-29T15:01:34.725Z,3.3
2022-11-29T15:02:34.547Z,3.3
2022-11-29T15:03:34.623Z,3.3
2022-11-29T15:04:34.504Z,3.3